createdAt,value
2019-02-21T00:00:08.502Z,5.80
2019-02-21T00:02:49.472Z,6.17
2019-02-21T00:05:29.951Z,6.33
2019-02-21T00:08:10.967Z,5.93
2019-02-21T00:10:51.690Z,4.97
2019-02-21T00:13:32.449Z,5.77
2019-02-21T00:16:13.623Z,5.70
2019-02-21T00:18:54.966Z,5.23
2019-02-21T00:21:35.531Z,5.77
2019-02-21T00:24:16.582Z,5.73
2019-02-21T00:26:57.476Z,5.57
2019-02-21T00:29:38.158Z,5.70
2019-02-21T00:32:18.919Z,6.53
2019-02-21T00:34:59.637Z,6.97
2019-02-21T00:37:40.336Z,6.33
2019-02-21T00:40:21.104Z,6.40
2019-02-21T00:43:01.901Z,6.60
2019-02-21T00:45:42.776Z,6.10
2019-02-21T00:48:24.070Z,6.50
2019-02-21T00:51:04.954Z,6.63
2019-02-21T00:53:45.748Z,7.97
2019-02-21T00:56:26.464Z,6.60
2019-02-21T00:59:07.225Z,5.93
2019-02-21T01:01:48.019Z,6.27
2019-02-21T01:04:29.060Z,5.70
2019-02-21T01:07:09.650Z,6.47
2019-02-21T01:09:50.807Z,6.20
2019-02-21T01:12:31.944Z,5.90
2019-02-21T01:15:12.820Z,5.23
2019-02-21T01:17:53.940Z,5.47
2019-02-21T01:20:34.784Z,6.27
2019-02-21T01:23:15.948Z,5.90
2019-02-21T01:25:56.787Z,6.60
2019-02-21T01:28:38.057Z,6.20
2019-02-21T01:31:18.969Z,5.63
2019-02-21T01:33:58.446Z,5.93
2019-02-21T01:36:39.787Z,5.60
2019-02-21T01:39:20.523Z,5.57
2019-02-21T01:42:01.295Z,5.27
2019-02-21T01:44:42.003Z,6.47
2019-02-21T01:47:22.835Z,6.13
2019-02-21T01:50:03.699Z,6.53
2019-02-21T01:52:44.507Z,6.07
2019-02-21T01:55:25.335Z,6.63
2019-02-21T01:58:06.069Z,4.90
2019-02-21T02:00:46.882Z,5.57
2019-02-21T02:03:28.543Z,6.50
2019-02-21T02:06:09.595Z,5.17
2019-02-21T02:08:50.364Z,5.93
2019-02-21T02:11:31.132Z,6.20
2019-02-21T02:14:12.235Z,6.37
2019-02-21T02:16:52.841Z,6.03
2019-02-21T02:19:33.494Z,7.07
2019-02-21T02:22:14.291Z,6.00
2019-02-21T02:24:55.091Z,6.23
2019-02-21T02:27:35.929Z,5.27
2019-02-21T02:30:17.239Z,5.03
2019-02-21T02:32:57.900Z,6.07
2019-02-21T02:35:38.328Z,5.40
2019-02-21T02:38:18.917Z,6.37
2019-02-21T02:40:59.307Z,6.17
2019-02-21T02:43:39.969Z,6.30
2019-02-21T02:46:20.629Z,6.57
2019-02-21T02:49:01.208Z,5.90
2019-02-21T02:51:42.065Z,6.33
2019-02-21T02:54:22.764Z,6.00
2019-02-21T02:57:03.642Z,6.57
2019-02-21T02:59:44.163Z,5.93
2019-02-21T03:02:24.940Z,5.87
2019-02-21T03:05:05.615Z,6.23
2019-02-21T03:07:46.702Z,7.10
2019-02-21T03:10:27.623Z,5.87
2019-02-21T03:13:08.482Z,5.83
2019-02-21T03:15:49.578Z,6.03
2019-02-21T03:18:30.428Z,5.80
2019-02-21T03:21:11.387Z,6.83
2019-02-21T03:23:52.148Z,6.57
2019-02-21T03:26:33.106Z,8.30
2019-02-21T03:29:14.207Z,6.50
2019-02-21T03:31:56.285Z,6.83
2019-02-21T03:34:37.752Z,6.17
2019-02-21T03:37:18.394Z,6.17
2019-02-21T03:39:58.956Z,6.30
2019-02-21T03:42:39.626Z,6.10
2019-02-21T03:45:20.347Z,5.83
2019-02-21T03:48:00.784Z,6.63
2019-02-21T03:50:41.474Z,8.17
2019-02-21T03:53:22.656Z,7.20
2019-02-21T03:56:03.728Z,8.43
2019-02-21T03:58:44.366Z,6.57
2019-02-21T04:01:24.910Z,8.40
2019-02-21T04:04:05.544Z,9.20
2019-02-21T04:06:46.311Z,8.23
2019-02-21T04:09:27.847Z,7.73
2019-02-21T04:12:08.610Z,8.20
2019-02-21T04:17:38.625Z,8.57
2019-02-21T04:20:19.475Z,6.30
2019-02-21T04:23:00.139Z,7.13
2019-02-21T04:25:41.144Z,9.30
2019-02-21T04:28:21.755Z,6.63
2019-02-21T04:31:02.322Z,7.43
2019-02-21T04:33:43.609Z,7.90
2019-02-21T04:36:24.268Z,7.73
2019-02-21T04:39:05.079Z,7.63
2019-02-21T04:41:46.055Z,8.50
2019-02-21T04:44:26.554Z,7.63
2019-02-21T04:47:07.316Z,8.20
2019-02-21T04:49:48.205Z,7.77
2019-02-21T04:52:28.638Z,6.97
2019-02-21T04:55:09.512Z,7.73
2019-02-21T04:57:50.436Z,9.07
2019-02-21T05:00:31.697Z,6.40
2019-02-21T05:03:12.596Z,9.00
2019-02-21T05:05:53.474Z,8.10
2019-02-21T05:08:34.341Z,6.30
2019-02-21T05:11:15.110Z,6.93
2019-02-21T05:13:56.067Z,7.90
2019-02-21T05:16:36.600Z,7.63
2019-02-21T05:19:17.327Z,7.20
2019-02-21T05:21:58.143Z,8.73
2019-02-21T05:24:39.103Z,7.30
2019-02-21T05:27:26.870Z,8.30
2019-02-21T05:30:07.816Z,9.23
2019-02-21T05:35:55.631Z,6.60
2019-02-21T05:38:56.361Z,6.50
2019-02-21T05:41:57.605Z,7.90
2019-02-21T05:44:46.656Z,8.13
2019-02-21T05:47:42.034Z,8.57
2019-02-21T05:50:21.557Z,11.23
2019-02-21T05:53:01.109Z,9.23
2019-02-21T05:55:50.234Z,11.73
2019-02-21T05:58:37.022Z,10.70
2019-02-21T06:01:26.173Z,9.63
2019-02-21T06:04:29.284Z,9.47
2019-02-21T06:10:10.899Z,10.17
2019-02-21T06:13:01.802Z,11.60
2019-02-21T06:16:03.186Z,11.20
2019-02-21T06:19:06.594Z,9.13
2019-02-21T06:21:55.727Z,9.40
2019-02-21T06:24:58.482Z,10.67
2019-02-21T06:27:43.788Z,8.80
2019-02-21T06:30:30.402Z,8.00
2019-02-21T06:33:11.569Z,9.27
2019-02-21T06:35:52.499Z,9.70
2019-02-21T06:38:33.819Z,10.40
2019-02-21T06:41:15.197Z,8.40
2019-02-21T06:43:56.812Z,8.80
2019-02-21T06:46:37.872Z,9.23
2019-02-21T06:49:19.090Z,10.10
2019-02-21T06:52:00.244Z,10.30
2019-02-21T06:54:41.379Z,9.93
2019-02-21T06:57:22.386Z,8.90
2019-02-21T07:00:03.216Z,11.13
2019-02-21T07:02:44.316Z,12.00
2019-02-21T07:05:25.019Z,9.33
2019-02-21T07:08:05.859Z,9.90
2019-02-21T07:10:46.762Z,11.40
2019-02-21T07:13:27.558Z,14.80
2019-02-21T07:16:08.433Z,13.77
2019-02-21T07:18:49.334Z,15.97
2019-02-21T07:21:29.895Z,15.27
2019-02-21T07:24:10.339Z,14.40
2019-02-21T07:26:50.984Z,15.30
2019-02-21T07:29:31.878Z,14.07
2019-02-21T07:32:12.651Z,13.47
2019-02-21T07:34:53.716Z,12.37
2019-02-21T07:37:34.367Z,14.13
2019-02-21T07:40:20.106Z,13.67
2019-02-21T07:42:58.763Z,12.83
2019-02-21T07:45:39.996Z,14.10
2019-02-21T07:48:21.073Z,12.63
2019-02-21T07:51:01.511Z,13.73
2019-02-21T07:53:42.748Z,19.33
2019-02-21T07:56:23.148Z,15.60
2019-02-21T07:59:03.957Z,14.70
2019-02-21T08:01:44.612Z,16.57
2019-02-21T08:04:25.553Z,15.37
2019-02-21T08:07:06.431Z,16.57
2019-02-21T08:09:47.158Z,16.17
2019-02-21T08:12:28.294Z,14.00
2019-02-21T08:15:11.807Z,17.83
2019-02-21T08:17:52.191Z,12.20
2019-02-21T08:20:37.085Z,16.60
2019-02-21T08:23:16.204Z,19.20
2019-02-21T08:25:57.288Z,18.87
2019-02-21T08:28:38.396Z,17.43
2019-02-21T08:31:19.222Z,19.60
2019-02-21T08:34:04.454Z,15.07
2019-02-21T08:36:45.778Z,16.37
2019-02-21T08:39:15.011Z,13.53
2019-02-21T08:42:03.203Z,18.77
2019-02-21T08:44:44.485Z,15.87
2019-02-21T08:47:25.226Z,16.00
2019-02-21T08:50:06.040Z,18.67
2019-02-21T08:52:46.744Z,17.93
2019-02-21T08:55:27.880Z,18.80
2019-02-21T08:58:08.482Z,16.50
2019-02-21T09:00:49.447Z,14.33
2019-02-21T09:03:30.977Z,16.80
2019-02-21T09:06:11.350Z,18.03
2019-02-21T09:08:52.034Z,17.30
2019-02-21T09:11:32.803Z,15.30
2019-02-21T09:14:13.713Z,19.10
2019-02-21T09:16:54.581Z,20.27
2019-02-21T09:19:36.830Z,17.67
2019-02-21T09:22:18.199Z,19.83
2019-02-21T09:24:58.948Z,15.93
2019-02-21T09:27:39.811Z,17.10
2019-02-21T09:30:21.513Z,17.70
2019-02-21T09:33:02.620Z,17.17
2019-02-21T09:35:43.436Z,15.63
2019-02-21T09:38:24.322Z,15.60
2019-02-21T09:41:04.937Z,16.17
2019-02-21T09:43:45.642Z,15.30
2019-02-21T09:46:26.521Z,17.47
2019-02-21T09:49:07.293Z,16.87
2019-02-21T09:51:48.253Z,18.10
2019-02-21T09:54:29.245Z,14.70
2019-02-21T09:57:13.181Z,15.30
2019-02-21T10:02:31.484Z,15.43
2019-02-21T10:05:12.307Z,16.70
2019-02-21T10:07:53.295Z,19.40
2019-02-21T10:10:34.000Z,21.40
2019-02-21T10:13:15.004Z,20.53
2019-02-21T10:15:55.743Z,20.83
2019-02-21T10:18:36.855Z,20.27
2019-02-21T10:21:17.871Z,16.10
2019-02-21T10:23:58.639Z,24.87
2019-02-21T10:26:39.660Z,22.90
2019-02-21T10:29:20.159Z,19.20
2019-02-21T10:32:00.569Z,15.37
2019-02-21T10:34:43.299Z,15.57
2019-02-21T10:37:24.419Z,15.33
2019-02-21T10:40:05.077Z,15.53
2019-02-21T10:42:46.342Z,15.37
2019-02-21T10:45:27.054Z,15.23
2019-02-21T10:48:08.246Z,17.20
2019-02-21T10:50:49.147Z,16.50
2019-02-21T10:53:30.411Z,16.63
2019-02-21T10:56:11.294Z,15.73
2019-02-21T10:58:52.553Z,14.47
2019-02-21T11:01:33.630Z,15.10
2019-02-21T11:04:13.411Z,15.10
2019-02-21T11:06:54.568Z,16.23
2019-02-21T11:09:35.063Z,16.10
2019-02-21T11:12:15.875Z,15.03
2019-02-21T11:14:56.569Z,15.10
2019-02-21T11:17:37.412Z,16.40
2019-02-21T11:20:17.904Z,16.13
2019-02-21T11:22:58.651Z,17.00
2019-02-21T11:25:39.267Z,13.47
2019-02-21T11:28:20.103Z,15.83
2019-02-21T11:31:00.976Z,15.90
2019-02-21T11:33:42.115Z,15.60
2019-02-21T11:36:22.809Z,15.97
2019-02-21T11:39:04.687Z,16.37
2019-02-21T11:41:45.898Z,15.10
2019-02-21T11:44:26.202Z,14.30
2019-02-21T11:49:53.213Z,14.27
2019-02-21T11:52:34.056Z,14.10
2019-02-21T11:55:14.799Z,13.43
2019-02-21T11:57:55.495Z,13.83
2019-02-21T12:00:36.672Z,14.20
2019-02-21T12:03:17.468Z,13.17
2019-02-21T12:05:58.248Z,11.80
2019-02-21T12:08:39.547Z,14.00
2019-02-21T12:11:19.127Z,13.50
2019-02-21T12:13:59.510Z,12.10
2019-02-21T12:16:39.972Z,12.07
2019-02-21T12:19:21.146Z,12.17
2019-02-21T12:22:00.706Z,10.90
2019-02-21T12:24:41.451Z,10.70
2019-02-21T12:27:22.744Z,9.87
2019-02-21T12:32:47.268Z,9.67
2019-02-21T12:35:29.903Z,9.90
2019-02-21T12:38:10.078Z,8.80
2019-02-21T12:40:50.800Z,10.77
2019-02-21T12:43:31.571Z,12.00
2019-02-21T12:46:12.739Z,11.70
2019-02-21T12:48:53.240Z,12.00
2019-02-21T12:51:33.895Z,11.80
2019-02-21T12:54:14.808Z,12.00
2019-02-21T12:56:55.929Z,13.23
2019-02-21T12:59:36.785Z,14.87
2019-02-21T13:02:17.703Z,14.20
2019-02-21T13:04:58.661Z,13.30
2019-02-21T13:07:39.599Z,12.57
2019-02-21T13:10:20.582Z,12.57
2019-02-21T13:13:01.385Z,12.90
2019-02-21T13:15:42.581Z,12.00
2019-02-21T13:18:23.413Z,12.33
2019-02-21T13:21:04.589Z,12.47
2019-02-21T13:23:45.567Z,10.67
2019-02-21T13:26:26.385Z,13.10
2019-02-21T13:29:07.147Z,11.63
2019-02-21T13:31:47.920Z,11.23
2019-02-21T13:34:29.326Z,11.30
2019-02-21T13:37:10.296Z,11.07
2019-02-21T13:39:51.435Z,11.97
2019-02-21T13:42:32.251Z,11.93
2019-02-21T13:45:13.198Z,10.50
2019-02-21T13:47:42.303Z,11.60
2019-02-21T13:50:30.471Z,11.17
2019-02-21T13:53:11.734Z,11.00
2019-02-21T13:55:52.544Z,11.50
2019-02-21T13:58:33.420Z,10.60
2019-02-21T14:01:14.579Z,11.07
2019-02-21T14:03:56.724Z,11.03
2019-02-21T14:06:37.622Z,11.87
2019-02-21T14:09:18.452Z,11.30
2019-02-21T14:11:59.420Z,13.40
2019-02-21T14:14:42.509Z,11.70
2019-02-21T14:17:23.746Z,11.17
2019-02-21T14:20:04.730Z,11.53
2019-02-21T14:22:45.551Z,12.07
2019-02-21T14:25:28.473Z,12.07
2019-02-21T14:28:09.184Z,10.90
2019-02-21T14:30:50.204Z,11.63
2019-02-21T14:33:31.117Z,9.87
2019-02-21T14:36:15.490Z,11.13
2019-02-21T14:38:54.654Z,10.57
2019-02-21T14:41:35.624Z,9.63
2019-02-21T14:44:16.407Z,10.87
2019-02-21T14:46:57.107Z,10.80
2019-02-21T14:49:37.772Z,10.87
2019-02-21T14:52:18.602Z,10.63
2019-02-21T14:54:59.756Z,10.50
2019-02-21T14:57:41.423Z,9.20
2019-02-21T15:00:22.481Z,10.60
2019-02-21T15:03:03.321Z,9.87
2019-02-21T15:05:44.102Z,12.47
2019-02-21T15:08:24.963Z,10.30
2019-02-21T15:11:05.573Z,10.27
2019-02-21T15:13:46.637Z,10.67
2019-02-21T15:16:27.389Z,9.97
2019-02-21T15:19:07.963Z,10.73
2019-02-21T15:21:49.327Z,11.43
2019-02-21T15:24:30.054Z,10.83
2019-02-21T15:27:10.897Z,11.03
2019-02-21T15:29:52.154Z,12.00
2019-02-21T15:32:31.781Z,9.97
2019-02-21T15:35:12.756Z,11.50
2019-02-21T15:37:53.373Z,10.97
2019-02-21T15:40:34.622Z,10.43
2019-02-21T15:43:15.241Z,10.37
2019-02-21T15:45:55.679Z,10.37
2019-02-21T15:48:36.469Z,10.60
2019-02-21T15:51:16.847Z,11.53
2019-02-21T15:53:57.515Z,10.20
2019-02-21T15:56:38.075Z,10.17
2019-02-21T15:59:19.012Z,9.73
2019-02-21T16:01:59.679Z,10.30
2019-02-21T16:04:40.147Z,9.87
2019-02-21T16:07:21.190Z,9.33
2019-02-21T16:10:02.257Z,9.70
2019-02-21T16:12:43.381Z,9.50
2019-02-21T16:15:24.523Z,9.53
2019-02-21T16:18:05.288Z,10.80
2019-02-21T16:20:45.967Z,9.93
2019-02-21T16:23:27.169Z,9.67
2019-02-21T16:26:08.204Z,10.23
2019-02-21T16:28:48.958Z,11.03
2019-02-21T16:31:29.736Z,9.83
2019-02-21T16:34:10.619Z,9.83
2019-02-21T16:37:01.832Z,10.07
2019-02-21T16:39:34.341Z,9.30
2019-02-21T16:42:15.176Z,9.27
2019-02-21T16:44:55.872Z,9.53
2019-02-21T16:47:36.699Z,9.77
2019-02-21T16:50:28.751Z,9.57
2019-02-21T16:53:00.563Z,9.67
2019-02-21T16:55:41.316Z,9.87
2019-02-21T16:58:22.092Z,10.27
2019-02-21T17:01:02.704Z,10.73
2019-02-21T17:03:42.441Z,11.23
2019-02-21T17:06:23.627Z,10.73
2019-02-21T17:09:05.630Z,10.80
2019-02-21T17:11:46.430Z,10.17
2019-02-21T17:14:27.357Z,10.03
2019-02-21T17:17:08.144Z,10.10
2019-02-21T17:19:49.047Z,9.60
2019-02-21T17:22:29.750Z,10.17
2019-02-21T17:25:10.579Z,11.37
2019-02-21T17:27:51.413Z,11.63
2019-02-21T17:30:32.377Z,12.43
2019-02-21T17:33:13.073Z,13.40
2019-02-21T17:35:54.063Z,13.30
2019-02-21T17:38:34.696Z,14.10
2019-02-21T17:41:15.600Z,13.43
2019-02-21T17:43:56.449Z,12.43
2019-02-21T17:46:37.266Z,13.30
2019-02-21T17:49:18.102Z,13.50
2019-02-21T17:51:58.929Z,13.57
2019-02-21T17:54:39.579Z,12.73
2019-02-21T17:57:20.876Z,12.10
2019-02-21T18:00:02.035Z,13.30
2019-02-21T18:02:42.513Z,11.60
2019-02-21T18:05:23.371Z,12.80
2019-02-21T18:08:04.222Z,12.60
2019-02-21T18:10:44.835Z,11.80
2019-02-21T18:13:25.785Z,14.50
2019-02-21T18:16:06.392Z,13.73
2019-02-21T18:18:47.140Z,11.03
2019-02-21T18:21:28.429Z,9.13
2019-02-21T18:24:08.987Z,9.63
2019-02-21T18:26:49.924Z,9.70
2019-02-21T18:29:30.575Z,9.40
2019-02-21T18:32:11.302Z,9.03
2019-02-21T18:34:51.962Z,10.70
2019-02-21T18:37:32.866Z,9.53
2019-02-21T18:40:17.611Z,10.07
2019-02-21T18:42:56.560Z,10.37
2019-02-21T18:45:37.635Z,10.20
2019-02-21T18:48:18.913Z,10.93
2019-02-21T18:51:00.086Z,11.80
2019-02-21T18:53:40.928Z,13.47
2019-02-21T18:56:21.949Z,11.33
2019-02-21T18:59:03.226Z,10.20
2019-02-21T19:01:44.171Z,9.40
2019-02-21T19:04:24.717Z,8.03
2019-02-21T19:07:05.483Z,8.10
2019-02-21T19:09:46.591Z,8.90
2019-02-21T19:12:27.088Z,8.10
2019-02-21T19:15:07.822Z,9.57
2019-02-21T19:17:48.719Z,9.17
2019-02-21T19:20:29.557Z,11.00
2019-02-21T19:23:10.312Z,12.80
2019-02-21T19:25:51.103Z,11.07
2019-02-21T19:28:32.280Z,10.13
2019-02-21T19:31:13.128Z,9.87
2019-02-21T19:33:54.119Z,11.07
2019-02-21T19:36:35.099Z,10.47
2019-02-21T19:39:15.692Z,10.57
2019-02-21T19:41:56.861Z,11.57
2019-02-21T19:44:37.744Z,12.03
2019-02-21T19:47:18.840Z,12.87
2019-02-21T19:49:59.664Z,13.47
2019-02-21T19:52:40.360Z,14.03
2019-02-21T19:55:21.369Z,13.17
2019-02-21T19:58:02.477Z,16.07
2019-02-21T20:00:43.825Z,17.47
2019-02-21T20:03:25.114Z,17.10
2019-02-21T20:06:05.820Z,14.03
2019-02-21T20:08:46.997Z,14.60
2019-02-21T20:11:27.986Z,15.10
2019-02-21T20:14:08.622Z,13.50
2019-02-21T20:16:49.951Z,15.83
2019-02-21T20:19:30.541Z,15.30
2019-02-21T20:22:11.303Z,15.83
2019-02-21T20:24:52.020Z,16.73
2019-02-21T20:27:33.161Z,15.77
2019-02-21T20:30:14.394Z,16.47
2019-02-21T20:32:55.286Z,16.00
2019-02-21T20:35:35.942Z,16.07
2019-02-21T20:38:16.590Z,15.07
2019-02-21T20:40:57.353Z,15.83
2019-02-21T20:43:38.214Z,15.07
2019-02-21T20:46:19.760Z,15.80
2019-02-21T20:49:00.596Z,16.77
2019-02-21T20:51:41.413Z,18.40
2019-02-21T20:57:35.038Z,17.37
2019-02-21T21:00:16.384Z,16.00
2019-02-21T21:02:57.093Z,16.23
2019-02-21T21:05:37.889Z,16.17
2019-02-21T21:08:21.118Z,15.83
2019-02-21T21:11:01.486Z,15.60
2019-02-21T21:13:44.034Z,14.43
2019-02-21T21:16:24.796Z,15.07
2019-02-21T21:19:04.342Z,16.23
2019-02-21T21:21:45.314Z,16.13
2019-02-21T21:24:25.923Z,16.03
2019-02-21T21:27:07.306Z,14.20
2019-02-21T21:29:48.045Z,16.03
2019-02-21T21:32:28.659Z,16.37
2019-02-21T21:35:09.403Z,17.10
2019-02-21T21:37:50.304Z,17.70
2019-02-21T21:40:31.270Z,14.57
2019-02-21T21:43:12.139Z,16.70
2019-02-21T21:45:52.533Z,17.63
2019-02-21T21:48:32.990Z,15.63
2019-02-21T21:51:13.789Z,16.73
2019-02-21T21:53:54.490Z,15.20
2019-02-21T21:56:35.820Z,16.50
2019-02-21T21:59:16.705Z,16.83
2019-02-21T22:01:57.746Z,16.00
2019-02-21T22:04:38.940Z,16.20
2019-02-21T22:07:19.670Z,16.13
2019-02-21T22:10:01.011Z,15.50
2019-02-21T22:15:46.218Z,14.33
2019-02-21T22:18:27.075Z,17.30
2019-02-21T22:21:07.918Z,16.90
2019-02-21T22:23:48.538Z,17.17
2019-02-21T22:26:29.361Z,17.03
2019-02-21T22:29:09.843Z,16.73
2019-02-21T22:31:51.181Z,16.40
2019-02-21T22:34:31.984Z,16.23
2019-02-21T22:37:12.846Z,17.03
2019-02-21T22:39:53.939Z,16.37
2019-02-21T22:42:34.691Z,16.83
2019-02-21T22:45:15.559Z,16.03
2019-02-21T22:47:57.598Z,15.97
2019-02-21T22:50:38.246Z,17.50
2019-02-21T22:53:19.204Z,16.10
2019-02-21T22:55:48.403Z,16.77
2019-02-21T22:58:45.053Z,18.17
2019-02-21T23:01:29.632Z,17.27
2019-02-21T23:04:10.745Z,16.53
2019-02-21T23:06:51.534Z,17.13
2019-02-21T23:09:32.350Z,17.73
2019-02-21T23:12:13.352Z,18.07
2019-02-21T23:14:54.775Z,18.63
2019-02-21T23:17:35.424Z,17.20
2019-02-21T23:20:16.136Z,19.10
2019-02-21T23:22:57.379Z,18.47
2019-02-21T23:25:38.122Z,20.43
2019-02-21T23:28:18.861Z,17.50
2019-02-21T23:30:59.937Z,17.03
2019-02-21T23:33:45.885Z,17.43
2019-02-21T23:36:26.716Z,17.90
2019-02-21T23:39:07.728Z,17.83
2019-02-21T23:41:48.343Z,17.83
2019-02-21T23:44:29.109Z,15.63
2019-02-21T23:46:58.340Z,17.53
2019-02-21T23:49:46.581Z,16.87
2019-02-21T23:52:27.382Z,15.87
2019-02-21T23:55:08.662Z,18.47
2019-02-21T23:57:49.128Z,17.13
